Terminal Aerodrome Forecast
Issued by NWS Jackson, KY

Home | Current Version | Previous Version | Text Only | Print | Product List | Glossary On
Versions: 1 2 3 4 5 6 7 8 9 10 11 12 13 14 15 16 17 18 19 20
000
FTUS43 KJKL 180500
TAFLOZ
TAF
KLOZ 180526Z 1806/1906 VRB04KT P6SM -SHRA BKN025 OVC045
     FM180700 VRB04KT 3SM -SHRA BR SCT015 OVC025
     FM180800 21003KT 2SM -SHRA BR BKN007 OVC015
     FM181300 25007KT 5SM BR OVC025
     FM181800 27009KT P6SM OVC035
     FM182200 VRB06KT P6SM BKN050=

USA.gov is the U.S. government's official web portal to all federal, state and local government web resources and services.